createdAt,value
2018-07-31T00:00:33.413Z,66.70
2018-07-31T00:03:01.641Z,66.80
2018-07-31T00:05:30.184Z,67.00
2018-07-31T00:07:58.400Z,67.20
2018-07-31T00:10:27.371Z,67.40
2018-07-31T00:12:55.774Z,67.90
2018-07-31T00:15:24.006Z,68.00
2018-07-31T00:17:52.577Z,68.00
2018-07-31T00:20:21.477Z,68.30
2018-07-31T00:22:50.023Z,68.70
2018-07-31T00:25:18.239Z,68.80
2018-07-31T00:27:46.801Z,68.90
2018-07-31T00:30:15.031Z,69.10
2018-07-31T00:32:43.237Z,69.30
2018-07-31T00:35:11.804Z,69.50
2018-07-31T00:37:40.347Z,69.50
2018-07-31T00:40:08.673Z,69.70
2018-07-31T00:42:36.890Z,70.00
2018-07-31T00:45:05.614Z,70.10
2018-07-31T00:47:35.186Z,70.10
2018-07-31T00:50:03.397Z,70.10
2018-07-31T00:52:31.946Z,70.10
2018-07-31T00:55:00.432Z,70.40
2018-07-31T00:57:28.668Z,70.30
2018-07-31T00:59:56.873Z,70.40
2018-07-31T01:02:25.113Z,70.50
2018-07-31T01:04:54.001Z,70.60
2018-07-31T01:07:22.227Z,70.60
2018-07-31T01:09:50.849Z,71.00
2018-07-31T01:12:19.462Z,71.30
2018-07-31T01:14:48.020Z,71.50
2018-07-31T01:17:16.901Z,71.70
2018-07-31T01:19:45.804Z,72.00
2018-07-31T01:22:14.353Z,72.40
2018-07-31T01:24:42.580Z,72.30
2018-07-31T01:27:10.844Z,72.60
2018-07-31T01:29:40.213Z,72.60
2018-07-31T01:32:08.436Z,73.00
2018-07-31T01:34:37.565Z,73.20
2018-07-31T01:37:05.778Z,73.20
2018-07-31T01:39:34.321Z,73.10
2018-07-31T01:42:02.524Z,73.50
2018-07-31T01:44:30.741Z,74.00
2018-07-31T01:46:59.380Z,74.30
2018-07-31T01:49:27.592Z,74.30
2018-07-31T01:51:55.792Z,74.50
2018-07-31T01:54:24.353Z,74.70
2018-07-31T01:56:52.554Z,74.80
2018-07-31T01:59:21.101Z,75.00
2018-07-31T02:01:49.348Z,75.20
2018-07-31T02:04:17.900Z,75.20
2018-07-31T02:06:46.805Z,75.00
2018-07-31T02:09:15.924Z,75.00
2018-07-31T02:11:44.312Z,75.00
2018-07-31T02:14:12.852Z,75.20
2018-07-31T02:19:10.321Z,75.40
2018-07-31T02:21:38.880Z,75.60
2018-07-31T02:24:07.169Z,75.60
2018-07-31T02:26:35.713Z,75.50
2018-07-31T02:29:04.904Z,75.70
2018-07-31T02:31:33.131Z,75.90
2018-07-31T02:34:01.690Z,76.20
2018-07-31T02:36:30.596Z,76.40
2018-07-31T02:38:59.185Z,76.70
2018-07-31T02:41:27.422Z,76.80
2018-07-31T02:43:56.300Z,77.00
2018-07-31T02:46:24.498Z,77.20
2018-07-31T02:48:52.706Z,77.00
2018-07-31T02:51:21.717Z,77.50
2018-07-31T02:55:14.180Z,77.70
2018-07-31T02:57:42.733Z,77.70
2018-07-31T03:00:11.890Z,77.90
2018-07-31T03:02:40.782Z,78.00
2018-07-31T03:05:11.014Z,78.10
2018-07-31T03:07:39.958Z,78.30
2018-07-31T03:10:09.108Z,78.30
2018-07-31T03:12:37.325Z,78.30
2018-07-31T03:17:34.641Z,78.80
2018-07-31T03:20:03.421Z,79.00
2018-07-31T03:22:31.928Z,79.10
2018-07-31T03:25:00.149Z,79.10
2018-07-31T03:27:28.389Z,79.10
2018-07-31T03:29:56.608Z,79.30
2018-07-31T03:32:25.161Z,79.30
2018-07-31T03:34:53.390Z,79.40
2018-07-31T03:37:22.222Z,79.50
2018-07-31T03:39:50.446Z,79.80
2018-07-31T03:42:19.365Z,80.00
2018-07-31T03:44:47.893Z,80.30
2018-07-31T03:47:16.113Z,80.20
2018-07-31T03:49:44.944Z,80.20
2018-07-31T03:52:13.499Z,80.50
2018-07-31T03:54:41.740Z,80.20
2018-07-31T03:57:09.953Z,79.90
2018-07-31T03:59:38.523Z,80.00
2018-07-31T04:02:07.412Z,80.00
2018-07-31T04:04:35.957Z,80.00
2018-07-31T04:07:04.202Z,80.10
2018-07-31T04:09:33.565Z,80.10
2018-07-31T04:12:01.794Z,80.20
2018-07-31T04:14:30.380Z,80.20
2018-07-31T04:16:59.316Z,80.20
2018-07-31T04:19:28.444Z,80.30
2018-07-31T04:21:56.991Z,80.30
2018-07-31T04:24:25.557Z,80.40
2018-07-31T04:26:54.708Z,80.30
2018-07-31T04:29:22.929Z,80.50
2018-07-31T04:31:51.261Z,80.60
2018-07-31T04:34:19.830Z,80.80
2018-07-31T04:36:48.098Z,80.90
2018-07-31T04:39:16.624Z,80.90
2018-07-31T04:41:45.481Z,80.70
2018-07-31T04:44:14.077Z,80.40
2018-07-31T04:46:42.298Z,80.30
2018-07-31T04:49:11.000Z,80.00
2018-07-31T04:51:39.220Z,79.80
2018-07-31T04:54:08.040Z,79.60
2018-07-31T04:56:36.964Z,79.50
2018-07-31T04:59:05.178Z,79.20
2018-07-31T05:01:33.724Z,79.50
2018-07-31T05:04:03.154Z,79.40
2018-07-31T05:06:32.297Z,79.00
2018-07-31T05:09:00.845Z,79.00
2018-07-31T05:11:29.409Z,78.70
2018-07-31T05:13:58.662Z,78.30
2018-07-31T05:16:27.754Z,78.00
2018-07-31T05:18:56.313Z,77.80
2018-07-31T05:21:24.536Z,77.30
2018-07-31T05:23:53.074Z,77.30
2018-07-31T05:26:21.626Z,77.20
2018-07-31T05:28:50.851Z,77.00
2018-07-31T05:31:19.749Z,76.70
2018-07-31T05:33:48.680Z,76.60
2018-07-31T05:36:17.565Z,76.20
2018-07-31T05:38:46.079Z,76.20
2018-07-31T05:41:14.327Z,75.90
2018-07-31T05:43:42.753Z,75.60
2018-07-31T05:46:11.382Z,75.30
2018-07-31T05:48:40.067Z,75.00
2018-07-31T05:51:08.285Z,74.80
2018-07-31T05:53:36.791Z,74.60
2018-07-31T05:56:05.913Z,74.40
2018-07-31T05:58:34.116Z,74.00
2018-07-31T06:01:02.338Z,73.70
2018-07-31T06:03:30.659Z,73.30
2018-07-31T06:05:59.212Z,72.90
2018-07-31T06:08:27.764Z,72.40
2018-07-31T06:10:57.057Z,72.30
2018-07-31T06:13:25.280Z,72.10
2018-07-31T06:15:54.537Z,71.80
2018-07-31T06:18:23.430Z,71.40
2018-07-31T06:20:52.011Z,71.10
2018-07-31T06:23:20.552Z,70.80
2018-07-31T06:25:49.107Z,70.40
2018-07-31T06:28:17.341Z,69.90
2018-07-31T06:30:45.554Z,69.50
2018-07-31T06:33:13.781Z,69.30
2018-07-31T06:35:42.310Z,69.00
2018-07-31T06:38:11.917Z,68.60
2018-07-31T06:40:40.486Z,68.40
2018-07-31T06:43:08.725Z,67.80
2018-07-31T06:45:37.314Z,67.40
2018-07-31T06:48:06.900Z,66.70
2018-07-31T06:50:35.906Z,66.50
2018-07-31T06:53:04.157Z,65.60
2018-07-31T06:55:32.744Z,65.30
2018-07-31T06:58:00.961Z,64.90
2018-07-31T07:00:29.175Z,64.70
2018-07-31T07:02:58.075Z,64.40
2018-07-31T07:05:26.638Z,64.30
2018-07-31T07:07:54.873Z,63.80
2018-07-31T07:10:24.108Z,63.60
2018-07-31T07:12:52.349Z,63.50
2018-07-31T07:18:16.997Z,62.30
2018-07-31T07:20:45.250Z,61.70
2018-07-31T07:23:13.919Z,61.10
2018-07-31T07:25:44.145Z,61.30
2018-07-31T07:28:12.384Z,61.40
2018-07-31T07:30:40.816Z,60.90
2018-07-31T07:33:09.033Z,60.50
2018-07-31T07:35:37.322Z,59.90
2018-07-31T07:38:06.186Z,59.30
2018-07-31T07:40:34.425Z,58.30
2018-07-31T07:43:02.665Z,57.90
2018-07-31T07:45:31.217Z,57.50
2018-07-31T07:48:00.358Z,57.50
2018-07-31T07:50:28.912Z,57.10
2018-07-31T07:52:57.809Z,56.70
2018-07-31T07:55:26.374Z,56.50
2018-07-31T07:57:54.610Z,56.30
2018-07-31T08:01:47.412Z,55.90
2018-07-31T08:04:16.287Z,55.60
2018-07-31T08:06:45.178Z,54.90
2018-07-31T08:09:14.053Z,53.90
2018-07-31T08:11:42.937Z,53.30
2018-07-31T08:14:11.491Z,53.60
2018-07-31T08:16:40.026Z,53.10
2018-07-31T08:19:08.237Z,53.00
2018-07-31T08:21:36.786Z,52.60
2018-07-31T08:24:05.343Z,52.00
2018-07-31T08:26:33.551Z,51.60
2018-07-31T08:29:02.110Z,50.80
2018-07-31T08:31:30.842Z,50.60
2018-07-31T08:33:59.068Z,50.60
2018-07-31T08:36:27.624Z,50.30
2018-07-31T08:38:55.827Z,50.00
2018-07-31T08:41:24.393Z,49.80
2018-07-31T08:43:53.798Z,49.50
2018-07-31T08:46:23.150Z,49.30
2018-07-31T08:48:51.371Z,48.90
2018-07-31T08:51:20.270Z,48.50
2018-07-31T08:53:48.837Z,47.40
2018-07-31T08:56:17.705Z,46.30
2018-07-31T08:58:46.249Z,46.00
2018-07-31T09:01:15.226Z,45.20
2018-07-31T09:03:43.780Z,45.30
2018-07-31T09:06:12.357Z,45.10
2018-07-31T09:08:40.638Z,45.00
2018-07-31T09:11:10.236Z,44.60
2018-07-31T09:16:06.739Z,44.40
2018-07-31T09:18:35.765Z,44.10
2018-07-31T09:21:04.321Z,44.10
2018-07-31T09:26:01.225Z,43.90
2018-07-31T09:28:29.898Z,43.40
2018-07-31T09:31:04.385Z,43.40
2018-07-31T09:33:33.662Z,43.40
2018-07-31T11:07:00.073Z,42.40
2018-07-31T11:09:30.216Z,36.30
2018-07-31T11:11:59.125Z,36.20
2018-07-31T11:14:27.549Z,36.10
2018-07-31T11:16:56.683Z,35.90
2018-07-31T11:19:24.914Z,36.20
2018-07-31T11:21:53.420Z,36.10
2018-07-31T11:24:21.662Z,35.00
2018-07-31T11:26:50.205Z,35.80
2018-07-31T11:29:18.757Z,36.00
2018-07-31T11:31:47.299Z,36.00
2018-07-31T11:34:15.492Z,35.60
2018-07-31T11:36:43.808Z,35.30
2018-07-31T11:39:13.117Z,35.60
2018-07-31T11:41:41.877Z,35.60
2018-07-31T11:44:10.107Z,35.20
2018-07-31T11:46:38.636Z,35.20
2018-07-31T11:49:07.656Z,35.00
2018-07-31T11:51:36.205Z,34.60
2018-07-31T11:54:04.429Z,34.40
2018-07-31T11:56:32.965Z,34.60
2018-07-31T11:59:01.183Z,35.10
2018-07-31T12:01:30.648Z,34.80
2018-07-31T12:03:58.857Z,34.20
2018-07-31T12:06:27.065Z,34.10
2018-07-31T12:08:55.277Z,34.30
2018-07-31T12:12:48.333Z,34.40
2018-07-31T12:15:16.578Z,34.40
2018-07-31T12:17:45.471Z,34.40
2018-07-31T12:20:13.682Z,34.30
2018-07-31T12:22:42.225Z,33.90
2018-07-31T12:25:10.818Z,34.30
2018-07-31T12:27:39.111Z,34.30
2018-07-31T12:30:09.036Z,34.30
2018-07-31T12:35:05.290Z,34.30
2018-07-31T12:37:33.476Z,34.10
2018-07-31T12:40:02.021Z,34.10
2018-07-31T12:42:30.222Z,33.60
2018-07-31T12:44:58.450Z,33.60
2018-07-31T12:47:27.316Z,33.60
2018-07-31T12:49:55.568Z,33.70
2018-07-31T12:52:23.754Z,33.70
2018-07-31T12:54:51.960Z,33.40
2018-07-31T12:57:21.284Z,33.40
2018-07-31T12:59:49.844Z,33.40
2018-07-31T13:02:18.466Z,33.40
2018-07-31T13:04:46.705Z,33.60
2018-07-31T13:07:15.583Z,33.00
2018-07-31T13:09:44.476Z,33.20
2018-07-31T13:12:12.698Z,32.80
2018-07-31T13:14:40.888Z,33.10
2018-07-31T13:17:09.104Z,32.60
2018-07-31T13:19:37.322Z,32.60
2018-07-31T13:22:05.552Z,32.80
2018-07-31T13:24:33.750Z,33.00
2018-07-31T13:27:02.311Z,32.70
2018-07-31T13:29:30.869Z,32.60
2018-07-31T13:31:59.407Z,32.40
2018-07-31T13:34:28.005Z,32.40
2018-07-31T13:36:56.549Z,32.40
2018-07-31T13:39:25.337Z,32.20
2018-07-31T13:41:54.129Z,32.20
2018-07-31T13:44:23.653Z,32.20
2018-07-31T13:46:52.230Z,31.60
2018-07-31T13:49:21.246Z,32.00
2018-07-31T13:51:49.616Z,32.20
2018-07-31T13:54:18.150Z,32.00
2018-07-31T13:56:46.918Z,32.00
2018-07-31T13:59:15.550Z,31.90
2018-07-31T14:01:44.114Z,31.00
2018-07-31T14:04:12.732Z,31.50
2018-07-31T14:06:42.095Z,31.70
2018-07-31T14:09:11.441Z,31.80
2018-07-31T14:11:40.945Z,31.70
2018-07-31T14:16:38.649Z,30.50
2018-07-31T14:19:07.229Z,30.60
2018-07-31T14:21:36.208Z,31.10
2018-07-31T14:24:04.804Z,31.00
2018-07-31T14:26:33.359Z,30.40
2018-07-31T14:29:01.905Z,30.40
2018-07-31T14:31:31.759Z,30.70
2018-07-31T14:34:01.324Z,30.70
2018-07-31T14:36:32.171Z,31.10
2018-07-31T14:39:05.621Z,31.50
2018-07-31T14:41:34.393Z,31.10
2018-07-31T14:44:04.370Z,31.30
2018-07-31T14:46:34.120Z,31.00
2018-07-31T14:49:02.353Z,30.80
2018-07-31T14:51:41.557Z,30.40
2018-07-31T14:54:10.660Z,31.60
2018-07-31T14:56:39.428Z,31.00
2018-07-31T14:59:08.764Z,31.00
2018-07-31T15:01:38.398Z,30.90
2018-07-31T15:04:06.976Z,31.30
2018-07-31T15:06:35.205Z,31.50
2018-07-31T15:09:05.541Z,31.90
2018-07-31T15:11:34.633Z,32.20
2018-07-31T15:14:02.850Z,32.30
2018-07-31T15:16:32.893Z,32.20
2018-07-31T15:19:01.982Z,32.30
2018-07-31T15:21:33.029Z,32.80
2018-07-31T15:24:01.651Z,31.10
2018-07-31T15:26:31.374Z,31.30
2018-07-31T15:29:01.918Z,32.20
2018-07-31T15:31:30.158Z,32.50
2018-07-31T15:33:59.291Z,32.50
2018-07-31T15:36:29.506Z,32.40
2018-07-31T15:38:58.122Z,32.40
2018-07-31T15:41:28.075Z,32.40
2018-07-31T15:43:57.949Z,32.40
2018-07-31T15:46:26.906Z,32.20
2018-07-31T15:48:56.446Z,32.20
2018-07-31T15:51:29.644Z,32.00
2018-07-31T15:53:58.262Z,32.20
2018-07-31T15:56:27.029Z,32.00
2018-07-31T15:58:56.421Z,32.00
2018-07-31T16:01:26.005Z,32.10
2018-07-31T16:03:54.755Z,31.90
2018-07-31T16:06:26.002Z,31.60
2018-07-31T16:08:54.923Z,32.00
2018-07-31T16:11:23.537Z,32.00
2018-07-31T16:13:51.788Z,32.20
2018-07-31T16:16:20.015Z,31.90
2018-07-31T16:18:48.988Z,32.10
2018-07-31T16:21:17.581Z,32.80
2018-07-31T16:23:46.470Z,32.10
2018-07-31T16:28:43.959Z,32.40
2018-07-31T16:31:12.186Z,32.40
2018-07-31T16:33:41.065Z,32.80
2018-07-31T16:36:09.998Z,32.90
2018-07-31T16:38:38.532Z,32.90
2018-07-31T16:41:08.999Z,33.00
2018-07-31T16:43:37.248Z,33.10
2018-07-31T16:46:10.122Z,33.00
2018-07-31T16:48:49.614Z,33.10
2018-07-31T16:51:17.895Z,33.10
2018-07-31T16:53:46.714Z,33.30
2018-07-31T16:56:15.266Z,33.10
2018-07-31T16:58:43.906Z,33.10
2018-07-31T17:01:12.189Z,32.90
2018-07-31T17:03:41.531Z,32.80
2018-07-31T17:08:38.750Z,32.90
2018-07-31T17:11:07.029Z,33.00
2018-07-31T17:13:35.253Z,33.10
2018-07-31T17:16:08.202Z,33.10
2018-07-31T17:18:37.621Z,32.50
2018-07-31T17:21:05.867Z,32.80
2018-07-31T17:23:34.083Z,32.70
2018-07-31T17:26:02.983Z,32.80
2018-07-31T17:28:32.245Z,32.80
2018-07-31T17:31:01.575Z,33.40
2018-07-31T17:33:30.148Z,32.80
2018-07-31T17:35:58.741Z,32.90
2018-07-31T17:38:31.530Z,32.80
2018-07-31T17:41:02.352Z,32.90
2018-07-31T17:43:42.461Z,33.00
2018-07-31T17:46:12.531Z,33.10
2018-07-31T17:48:41.416Z,33.30
2018-07-31T17:51:10.697Z,33.20
2018-07-31T17:53:40.716Z,33.20
2018-07-31T17:56:09.285Z,33.30
2018-07-31T17:58:37.873Z,33.50
2018-07-31T18:01:06.409Z,33.40
2018-07-31T18:03:35.372Z,33.40
2018-07-31T18:08:57.602Z,33.80
2018-07-31T18:11:29.477Z,34.00
2018-07-31T18:13:58.776Z,34.10
2018-07-31T18:16:27.809Z,34.30
2018-07-31T18:18:56.364Z,34.30
2018-07-31T18:24:22.973Z,34.80
2018-07-31T18:26:51.195Z,34.90
2018-07-31T18:29:19.999Z,35.00
2018-07-31T18:31:48.559Z,35.10
2018-07-31T18:34:16.824Z,35.20
2018-07-31T18:36:45.093Z,35.40
2018-07-31T18:39:14.194Z,35.90
2018-07-31T18:41:42.932Z,36.00
2018-07-31T18:44:11.653Z,36.20
2018-07-31T18:46:40.213Z,36.20
2018-07-31T18:49:08.506Z,36.40
2018-07-31T18:51:39.401Z,36.70
2018-07-31T18:54:08.241Z,37.00
2018-07-31T18:56:39.953Z,37.90
2018-07-31T18:59:17.342Z,38.40
2018-07-31T19:01:46.031Z,38.10
2018-07-31T19:07:21.937Z,38.20
2018-07-31T19:09:51.314Z,38.50
2018-07-31T19:12:21.136Z,38.50
2018-07-31T19:14:50.875Z,38.70
2018-07-31T19:17:21.671Z,39.10
2018-07-31T19:19:55.431Z,39.30
2018-07-31T19:22:26.892Z,39.60
2018-07-31T19:24:55.688Z,39.90
2018-07-31T19:27:30.435Z,39.90
2018-07-31T19:30:12.240Z,41.30
2018-07-31T19:33:42.866Z,41.30
2018-07-31T19:39:23.299Z,41.60
2018-07-31T19:48:00.709Z,43.00
2018-07-31T19:50:29.337Z,43.20
2018-07-31T20:12:03.933Z,44.50
2018-07-31T20:14:32.181Z,45.10
2018-07-31T20:19:29.848Z,45.00
2018-07-31T20:21:58.737Z,45.10
2018-07-31T20:24:27.336Z,46.30
2018-07-31T20:26:56.228Z,46.60
2018-07-31T20:29:24.776Z,46.10
2018-07-31T20:31:53.011Z,46.60
2018-07-31T20:34:21.570Z,46.60
2018-07-31T20:36:49.790Z,46.80
2018-07-31T20:39:18.001Z,47.40
2018-07-31T20:41:46.303Z,47.70
2018-07-31T20:44:14.649Z,48.90
2018-07-31T20:46:43.533Z,48.40
2018-07-31T20:49:13.068Z,48.20
2018-07-31T20:51:41.310Z,48.40
2018-07-31T20:54:12.329Z,48.60
2018-07-31T20:56:41.449Z,48.40
2018-07-31T20:59:10.032Z,48.90
2018-07-31T21:01:38.580Z,48.50
2018-07-31T21:04:07.241Z,49.00
2018-07-31T21:06:36.370Z,49.80
2018-07-31T21:09:07.779Z,50.10
2018-07-31T21:11:36.170Z,49.70
2018-07-31T21:14:04.409Z,50.00
2018-07-31T21:16:32.988Z,50.10
2018-07-31T21:19:01.336Z,50.30
2018-07-31T21:21:29.709Z,49.80
2018-07-31T21:23:58.581Z,49.90
2018-07-31T21:26:27.144Z,49.90
2018-07-31T21:29:32.833Z,50.00
2018-07-31T21:32:01.649Z,49.80
2018-07-31T21:34:30.254Z,49.80
2018-07-31T21:36:58.847Z,49.90
2018-07-31T21:39:29.960Z,49.50
2018-07-31T21:42:08.180Z,49.30
2018-07-31T21:44:36.437Z,49.50
2018-07-31T21:47:06.544Z,49.50
2018-07-31T21:49:36.581Z,49.50
2018-07-31T21:52:06.073Z,49.40
2018-07-31T21:57:16.261Z,49.80
2018-07-31T21:59:45.030Z,50.00
2018-07-31T22:02:14.521Z,50.30
2018-07-31T22:04:43.082Z,50.50
2018-07-31T22:07:11.636Z,50.60
2018-07-31T22:09:52.533Z,50.70
2018-07-31T22:12:21.640Z,50.90
2018-07-31T22:14:49.885Z,51.10
2018-07-31T22:17:19.515Z,52.10
2018-07-31T22:19:48.739Z,51.70
2018-07-31T22:22:17.654Z,52.10
2018-07-31T22:24:46.329Z,52.70
2018-07-31T22:27:16.287Z,52.40
2018-07-31T22:29:44.754Z,52.70
2018-07-31T22:32:13.336Z,53.00
2018-07-31T22:34:41.905Z,53.00
2018-07-31T22:37:10.193Z,53.30
2018-07-31T22:39:38.773Z,53.50
2018-07-31T22:42:07.694Z,54.00
2018-07-31T22:44:36.607Z,54.10
2018-07-31T22:47:04.828Z,54.10
2018-07-31T22:49:33.392Z,54.40
2018-07-31T22:54:30.014Z,54.90
2018-07-31T22:56:58.794Z,54.80
2018-07-31T22:59:27.417Z,54.50
2018-07-31T23:01:56.364Z,54.80
2018-07-31T23:04:24.565Z,54.50
2018-07-31T23:06:53.106Z,55.00
2018-07-31T23:09:22.483Z,54.90
2018-07-31T23:11:51.049Z,54.90
2018-07-31T23:14:19.596Z,54.80
2018-07-31T23:16:48.438Z,55.00
2018-07-31T23:19:16.661Z,55.00
2018-07-31T23:21:45.221Z,55.00
2018-07-31T23:24:13.775Z,55.00
2018-07-31T23:26:42.618Z,55.10
2018-07-31T23:29:12.073Z,55.80
2018-07-31T23:31:40.630Z,55.30
2018-07-31T23:34:09.192Z,55.40
2018-07-31T23:36:38.413Z,55.60
2018-07-31T23:39:09.597Z,55.50
2018-07-31T23:41:38.652Z,55.50
2018-07-31T23:44:06.938Z,55.40
2018-07-31T23:46:35.509Z,55.60
2018-07-31T23:49:03.728Z,55.70
2018-07-31T23:51:31.973Z,56.00
2018-07-31T23:54:00.735Z,56.00
2018-07-31T23:56:28.963Z,56.10
2018-07-31T23:58:57.167Z,56.30
